Time;durP1;ratioP1;P1;durP2;ratioP2;P2;SDS_P1;SDS_P2;PMS_P1;PMS_P2;Temp;Humidity;BMP_temperature;BMP_pressure;BME280_temperature;BME280_humidity;BME280_pressure;Samples;Min_cycle;Max_cycle;Signal;HPM_P1;HPM_P2
2022/04/08 00:07:29;;;;;;;33.47;31.37;;;;;;;6.04;100.00;100142.02;2000551;71;33342;-67
2022/04/08 00:13:13;;;;;;;46.23;43.73;;;;;;;5.73;100.00;100141.11;2011450;71;32760;-70
2022/04/08 00:18:57;;;;;;;55.00;51.90;;;;;;;5.39;100.00;100139.33;1994568;71;32846;-71
2022/04/08 00:24:42;;;;;;;57.70;54.20;;;;;;;5.49;100.00;100136.05;1998268;71;32815;-67
2022/04/08 00:30:26;;;;;;;58.10;54.67;;;;;;;5.59;100.00;100141.33;2000504;71;32875;-70
2022/04/08 00:36:13;;;;;;;58.50;54.90;;;;;;;5.53;100.00;100147.91;2012995;71;32865;-67
2022/04/08 00:42:01;;;;;;;58.83;55.03;;;;;;;5.53;100.00;100154.25;2016593;71;33293;-70
2022/04/08 00:47:45;;;;;;;62.27;58.47;;;;;;;5.56;100.00;100151.52;2009367;71;32806;-71
2022/04/08 00:53:31;;;;;;;62.50;58.50;;;;;;;5.07;100.00;100157.31;2004189;71;32835;-67
2022/04/08 00:59:17;;;;;;;62.70;58.67;;;;;;;5.07;100.00;100142.72;2014716;71;33343;-67
2022/04/08 01:05:01;;;;;;;62.40;58.60;;;;;;;5.37;100.00;100132.70;2015075;71;33321;-67
2022/04/08 01:10:48;;;;;;;62.60;58.77;;;;;;;5.39;100.00;100131.06;2006063;71;32750;-69
2022/04/08 01:16:33;;;;;;;60.47;56.83;;;;;;;5.41;100.00;100119.22;2011155;71;33057;-67
2022/04/08 01:22:18;;;;;;;62.50;58.80;;;;;;;5.18;100.00;100110.84;2016931;71;32794;-69
2022/04/08 01:28:05;;;;;;;62.33;58.20;;;;;;;4.63;100.00;100107.77;1996874;71;32784;-66
2022/04/08 01:33:51;;;;;;;62.63;58.43;;;;;;;4.52;100.00;100102.20;2009039;71;32794;-67
2022/04/08 01:39:35;;;;;;;64.53;60.43;;;;;;;4.82;100.00;100091.95;2016730;71;32818;-68
2022/04/08 01:45:20;;;;;;;63.07;59.30;;;;;;;4.95;100.00;100087.90;1996827;71;33218;-70
2022/04/08 01:51:05;;;;;;;62.03;58.13;;;;;;;5.06;100.00;100097.85;2014468;71;32804;-71
2022/04/08 01:56:49;;;;;;;64.07;60.13;;;;;;;5.59;100.00;100094.50;1977294;72;32957;-68
2022/04/08 02:02:33;;;;;;;63.80;59.80;;;;;;;5.59;100.00;100101.39;2016513;71;33323;-67
2022/04/08 02:08:19;;;;;;;61.70;57.73;;;;;;;5.41;100.00;100115.92;2002429;71;33201;-70
2022/04/08 02:14:03;;;;;;;61.47;57.47;;;;;;;5.17;100.00;100121.60;2016487;71;32911;-67
2022/04/08 02:19:47;;;;;;;61.47;57.40;;;;;;;5.03;100.00;100117.12;2013020;71;33330;-67
2022/04/08 02:25:33;;;;;;;63.07;58.77;;;;;;;5.26;100.00;100099.90;1995026;71;33259;-68
2022/04/08 02:31:20;;;;;;;62.90;58.97;;;;;;;5.51;100.00;100088.98;2011502;71;32743;-70
2022/04/08 02:37:04;;;;;;;62.47;58.67;;;;;;;5.38;100.00;100066.07;2005711;71;33287;-67
2022/04/08 02:42:48;;;;;;;61.20;57.30;;;;;;;5.28;100.00;100053.09;2018249;70;32789;-70
2022/04/08 02:48:33;;;;;;;63.27;58.97;;;;;;;5.16;100.00;100055.80;2007335;71;32899;-67
2022/04/08 02:54:17;;;;;;;60.90;56.80;;;;;;;4.98;100.00;100040.58;2007583;70;33273;-69
2022/04/08 03:00:01;;;;;;;60.37;56.47;;;;;;;5.01;100.00;100044.98;2012905;71;33350;-68
2022/04/08 03:05:45;;;;;;;60.30;56.30;;;;;;;4.77;100.00;100041.03;2002558;70;32858;-68
2022/04/08 03:11:29;;;;;;;61.83;57.63;;;;;;;4.51;100.00;100037.30;2016586;71;33363;-69
2022/04/08 03:17:13;;;;;;;61.93;57.80;;;;;;;4.36;100.00;100041.88;2016515;71;32897;-67
2022/04/08 03:22:57;;;;;;;60.07;55.73;;;;;;;4.09;100.00;100059.80;1991354;71;32742;-70
2022/04/08 03:28:42;;;;;;;60.07;55.90;;;;;;;4.34;100.00;100058.63;2014634;71;33274;-67
2022/04/08 03:34:28;;;;;;;58.23;54.30;;;;;;;4.61;100.00;100040.67;2005980;71;32888;-70
2022/04/08 03:40:14;;;;;;;59.37;55.37;;;;;;;4.69;100.00;100031.91;2016562;70;33399;-67
2022/04/08 03:45:58;;;;;;;61.37;57.20;;;;;;;4.77;100.00;100013.52;2011237;71;32933;-67
2022/04/08 03:51:44;;;;;;;59.60;55.40;;;;;;;4.89;100.00;100007.24;2002399;71;33251;-70
2022/04/08 03:57:32;;;;;;;60.20;55.77;;;;;;;5.00;100.00;99977.86;1994897;71;32820;-70
2022/04/08 04:03:16;;;;;;;60.70;56.20;;;;;;;5.06;100.00;99979.51;2005967;71;32803;-70
2022/04/08 04:09:00;;;;;;;61.87;57.30;;;;;;;5.01;100.00;99978.94;2009131;71;32806;-68
2022/04/08 04:14:44;;;;;;;60.90;56.40;;;;;;;5.16;100.00;99975.97;2005389;71;32870;-69
2022/04/08 04:20:28;;;;;;;62.53;57.90;;;;;;;5.07;100.00;99972.91;2009240;71;32912;-70
2022/04/08 04:26:12;;;;;;;60.60;56.33;;;;;;;5.17;100.00;99956.44;2009108;71;33309;-68
2022/04/08 04:31:59;;;;;;;59.23;54.90;;;;;;;5.04;100.00;99951.45;2005584;71;32808;-67
2022/04/08 04:37:43;;;;;;;60.80;56.60;;;;;;;4.73;100.00;99956.01;1991293;71;32855;-67
2022/04/08 04:43:28;;;;;;;61.57;56.90;;;;;;;4.57;100.00;99963.37;2018198;71;32815;-70
2022/04/08 04:49:12;;;;;;;58.87;54.67;;;;;;;4.51;100.00;99947.93;2011097;71;33364;-68
2022/04/08 04:54:57;;;;;;;58.60;54.50;;;;;;;4.76;100.00;99940.87;1996953;71;33270;-70
2022/04/08 05:00:42;;;;;;;59.40;55.00;;;;;;;4.79;100.00;99941.73;1998318;71;32882;-67
2022/04/08 05:06:28;;;;;;;60.97;56.67;;;;;;;4.70;100.00;99934.55;2007482;71;32867;-68
2022/04/08 05:12:13;;;;;;;60.07;55.93;;;;;;;4.51;100.00;99941.59;2009188;70;33420;-70
2022/04/08 05:17:59;;;;;;;60.13;55.33;;;;;;;4.94;100.00;99944.52;2005582;71;33701;-70
2022/04/08 05:23:43;;;;;;;60.33;55.93;;;;;;;4.66;100.00;99946.36;2000415;71;32864;-70
2022/04/08 05:29:28;;;;;;;58.50;54.23;;;;;;;4.45;100.00;99943.48;2009640;71;32819;-68
2022/04/08 05:35:14;;;;;;;58.77;54.37;;;;;;;4.62;100.00;99951.54;2003836;71;32878;-72
2022/04/08 05:40:59;;;;;;;59.27;54.83;;;;;;;4.88;100.00;99941.47;2004180;71;32743;-67
2022/04/08 05:46:43;;;;;;;61.40;56.00;;;;;;;5.08;100.00;99928.34;2005473;71;33265;-70
2022/04/08 05:52:29;;;;;;;58.50;54.10;;;;;;;5.13;100.00;99919.55;2013025;71;32912;-71
2022/04/08 05:58:13;;;;;;;59.80;55.20;;;;;;;5.09;100.00;99907.98;2003971;71;33362;-68
2022/04/08 06:04:00;;;;;;;59.63;55.23;;;;;;;4.76;100.00;99902.36;1991512;71;33235;-71
2022/04/08 06:09:47;;;;;;;58.53;53.93;;;;;;;4.67;100.00;99899.31;2014677;71;32806;-70
2022/04/08 06:15:31;;;;;;;59.00;54.47;;;;;;;4.62;100.00;99884.73;2000135;71;33420;-67
2022/04/08 06:21:16;;;;;;;59.77;55.10;;;;;;;4.75;100.00;99890.53;2002264;71;33223;-70
2022/04/08 06:27:01;;;;;;;62.27;57.47;;;;;;;5.04;100.00;99890.91;2007952;71;32748;-70
2022/04/08 06:32:45;;;;;;;64.13;59.53;;;;;;;4.84;100.00;99886.16;2016321;71;32791;-70
2022/04/08 06:38:32;;;;;;;66.70;61.70;;;;;;;4.95;100.00;99882.36;2007319;71;33303;-69
2022/04/08 06:44:18;;;;;;;67.17;62.30;;;;;;;5.01;100.00;99877.66;2005395;71;32890;-69
2022/04/08 06:50:03;;;;;;;64.97;59.97;;;;;;;5.29;100.00;99870.83;1991671;71;33295;-76
2022/04/08 06:55:48;;;;;;;63.47;58.77;;;;;;;5.13;100.00;99852.11;2016297;70;32813;-79
2022/04/08 07:01:33;;;;;;;62.97;58.07;;;;;;;5.22;100.00;99846.89;2012894;71;32973;-74
2022/04/08 07:07:17;;;;;;;64.23;59.33;;;;;;;5.35;100.00;99843.56;2004570;70;32781;-77
2022/04/08 07:13:01;;;;;;;61.70;57.10;;;;;;;5.48;100.00;99841.08;2002501;71;32883;-78
2022/04/08 07:18:45;;;;;;;63.07;58.37;;;;;;;5.80;100.00;99838.02;1997251;71;33347;-74
2022/04/08 07:24:30;;;;;;;65.83;61.23;;;;;;;5.94;100.00;99821.77;2017220;71;33358;-77
2022/04/08 07:30:15;;;;;;;64.50;58.93;;;;;;;6.12;100.00;99810.69;2016442;71;32913;-73
2022/04/08 07:36:01;;;;;;;63.53;58.90;;;;;;;6.23;100.00;99806.78;2006353;71;32864;-79
2022/04/08 07:41:45;;;;;;;63.93;58.87;;;;;;;6.13;100.00;99804.88;2012987;71;33335;-74
2022/04/08 07:47:37;;;;;;;64.00;59.23;;;;;;;6.34;100.00;99795.41;2003808;70;33387;-73
2022/04/08 07:53:22;;;;;;;64.43;59.77;;;;;;;6.34;100.00;99797.34;1991584;71;32790;-80
2022/04/08 07:59:07;;;;;;;63.17;58.47;;;;;;;6.32;100.00;99793.51;2008212;71;33319;-72
2022/04/08 08:04:51;;;;;;;64.80;60.03;;;;;;;6.42;100.00;99796.74;2018801;71;32827;-82
2022/04/08 08:10:36;;;;;;;61.83;57.30;;;;;;;6.43;100.00;99801.71;2000588;71;33339;-80
2022/04/08 08:16:20;;;;;;;63.73;59.23;;;;;;;6.49;100.00;99818.52;2009982;71;32797;-76
2022/04/08 08:22:05;;;;;;;63.57;59.07;;;;;;;6.59;100.00;99820.65;2004951;71;32740;-84
2022/04/08 08:27:52;;;;;;;63.50;58.97;;;;;;;6.70;100.00;99831.92;2003673;71;33422;-72
2022/04/08 08:33:40;;;;;;;61.87;57.37;;;;;;;7.00;100.00;99825.38;2006194;71;32809;-80
2022/04/08 08:42:33;;;;;;;60.37;55.87;;;;;;;7.21;100.00;99815.84;2059636;69;32581;-85
2022/04/08 08:45:04;;;;;;;61.93;57.57;;;;;;;7.20;100.00;99826.61;2000780;70;26251;-79
2022/04/08 08:47:36;;;;;;;64.00;59.57;;;;;;;7.25;100.00;99827.13;1937791;74;26737;-84
2022/04/08 08:50:08;;;;;;;62.70;58.40;;;;;;;7.32;100.00;99832.58;1937954;73;26219;-75
2022/04/08 08:52:40;;;;;;;61.33;57.23;;;;;;;7.30;100.00;99829.30;1964939;72;26214;-80
2022/04/08 08:55:10;;;;;;;60.13;56.17;;;;;;;7.33;100.00;99822.36;1937736;73;26233;-75
2022/04/08 09:00:55;;;;;;;59.10;55.30;;;;;;;7.38;100.00;99824.26;2009495;71;32795;-75
2022/04/08 09:06:42;;;;;;;60.60;56.60;;;;;;;7.43;100.00;99819.52;2004021;71;33412;-76
2022/04/08 09:12:28;;;;;;;58.83;54.90;;;;;;;7.60;100.00;99817.70;2009367;71;32739;-82
2022/04/08 09:18:15;;;;;;;59.13;55.07;;;;;;;7.86;100.00;99820.48;2015024;71;32862;-76
2022/04/08 09:24:06;;;;;;;57.03;53.17;;;;;;;8.00;100.00;99817.86;2009391;71;32805;-83
2022/04/08 09:29:51;;;;;;;57.27;53.37;;;;;;;8.14;100.00;99821.55;2009437;71;32735;-83
2022/04/08 09:35:41;;;;;;;56.43;52.77;;;;;;;8.30;100.00;99825.02;2005497;71;32806;-81
2022/04/08 09:41:39;;;;;;;53.70;50.37;;;;;;;8.54;100.00;99826.63;2013376;71;32942;-79
2022/04/08 09:47:24;;;;;;;49.57;46.57;;;;;;;8.59;100.00;99821.59;2009866;71;32833;-75
2022/04/08 09:53:12;;;;;;;49.30;46.23;;;;;;;8.74;100.00;99831.05;2014897;71;32872;-79
2022/04/08 09:59:02;;;;;;;46.77;43.60;;;;;;;8.91;100.00;99825.00;2015221;71;32964;-80
2022/04/08 10:04:47;;;;;;;42.83;40.50;;;;;;;9.00;100.00;99835.67;2000781;71;32842;-75
2022/04/08 10:10:36;;;;;;;35.40;33.43;;;;;;;9.09;100.00;99833.31;2005743;71;32956;-75
2022/04/08 10:16:41;;;;;;;38.07;35.63;;;;;;;9.21;100.00;99845.31;2009775;71;33346;-75
2022/04/08 10:22:26;;;;;;;37.83;35.53;;;;;;;9.38;100.00;99840.61;1994795;71;33201;-72
2022/04/08 10:28:12;;;;;;;31.70;29.70;;;;;;;9.51;100.00;99820.44;2002480;71;33298;-78
2022/04/08 10:34:02;;;;;;;30.93;29.00;;;;;;;9.67;100.00;99828.75;2016127;71;32804;-72
2022/04/08 10:39:59;;;;;;;27.80;26.30;;;;;;;9.65;100.00;99824.64;2004332;71;32961;-85
2022/04/08 10:45:55;;;;;;;28.13;26.33;;;;;;;9.63;100.00;99828.30;2003684;71;32804;-81
2022/04/08 10:51:50;;;;;;;27.00;25.13;;;;;;;9.74;100.00;99835.30;1991688;71;32821;-77
2022/04/08 10:57:36;;;;;;;26.47;24.80;;;;;;;10.02;100.00;99833.66;2005869;71;32871;-82
2022/04/08 11:03:29;;;;;;;23.43;22.03;;;;;;;10.22;100.00;99831.09;1991701;71;33326;-76
2022/04/08 11:09:14;;;;;;;20.20;18.83;;;;;;;10.30;100.00;99819.27;2008982;71;33040;-72
2022/04/08 11:15:02;;;;;;;18.87;17.37;;;;;;;10.11;100.00;99825.44;2009529;71;32918;-72
2022/04/08 11:20:51;;;;;;;17.07;15.67;;;;;;;10.55;100.00;99826.81;2009268;71;32890;-76
2022/04/08 11:26:45;;;;;;;17.23;15.57;;;;;;;10.90;100.00;99822.70;2005960;71;33000;-84
2022/04/08 11:32:32;;;;;;;14.53;13.67;;;;;;;10.74;100.00;99828.91;2008000;71;33414;-76
2022/04/08 11:38:27;;;;;;;13.10;12.37;;;;;;;10.40;100.00;99825.98;2002765;71;32911;-77
2022/04/08 11:44:13;;;;;;;12.90;11.83;;;;;;;10.60;100.00;99828.09;2004526;71;33300;-83
2022/04/08 11:50:06;;;;;;;13.30;12.43;;;;;;;10.27;100.00;99837.91;1997509;71;33279;-75
2022/04/08 11:55:56;;;;;;;12.50;11.70;;;;;;;10.30;100.00;99840.66;2000316;71;32875;-77
2022/04/08 12:01:42;;;;;;;13.43;12.63;;;;;;;10.31;100.00;99834.77;2010760;71;32828;-72
2022/04/08 12:07:29;;;;;;;13.73;12.77;;;;;;;10.60;100.00;99833.09;2013329;71;32966;-83
2022/04/08 12:13:37;;;;;;;11.70;10.77;;;;;;;11.07;100.00;99835.10;2013423;71;32857;-83
2022/04/08 12:19:43;;;;;;;11.10;10.40;;;;;;;10.84;100.00;99838.39;2012567;71;32912;-81
2022/04/08 12:25:49;;;;;;;11.20;10.43;;;;;;;11.02;100.00;99840.20;2005076;71;32806;-72
2022/04/08 12:31:34;;;;;;;11.03;10.40;;;;;;;11.71;100.00;99823.50;1996451;71;32768;-81
2022/04/08 12:37:18;;;;;;;11.40;10.40;;;;;;;11.42;100.00;99833.66;2013279;71;32835;-77
2022/04/08 12:43:03;;;;;;;11.20;10.23;;;;;;;11.25;100.00;99825.19;2007190;71;32840;-83
2022/04/08 12:48:48;;;;;;;11.50;10.70;;;;;;;11.12;100.00;99830.82;2000135;71;32884;-84
2022/04/08 12:54:32;;;;;;;11.10;10.33;;;;;;;11.68;100.00;99825.50;2016301;71;32886;-75
2022/04/08 13:00:18;;;;;;;10.50;10.00;;;;;;;11.48;100.00;99823.81;2012642;70;32869;-77
2022/04/08 13:06:05;;;;;;;10.67;10.07;;;;;;;11.46;100.00;99831.66;1933638;73;33054;-77
2022/04/08 13:11:49;;;;;;;11.27;10.57;;;;;;;11.76;100.00;99833.14;2003864;71;33225;-77
2022/04/08 13:17:34;;;;;;;11.93;11.10;;;;;;;11.77;100.00;99833.94;2012596;71;32832;-74
2022/04/08 13:23:19;;;;;;;11.50;10.70;;;;;;;11.81;100.00;99834.37;2013213;71;32804;-77
2022/04/08 13:29:05;;;;;;;10.57;10.07;;;;;;;11.51;100.00;99837.11;2018101;71;32818;-78
2022/04/08 13:34:49;;;;;;;11.70;10.80;;;;;;;11.60;100.00;99838.79;2011284;70;32828;-76
2022/04/08 13:40:35;;;;;;;11.50;10.63;;;;;;;11.81;100.00;99835.77;1990940;71;32890;-72
2022/04/08 13:46:20;;;;;;;10.80;10.10;;;;;;;12.09;100.00;99841.99;2008802;71;33366;-74
2022/04/08 13:52:05;;;;;;;10.90;10.30;;;;;;;12.37;100.00;99837.59;2016232;71;33264;-68
2022/04/08 13:57:49;;;;;;;11.07;10.47;;;;;;;12.16;100.00;99836.78;2014548;71;33322;-68
2022/04/08 14:03:34;;;;;;;11.30;10.43;;;;;;;12.58;100.00;99838.08;2015989;71;32877;-74
2022/04/08 14:09:18;;;;;;;10.27;9.77;;;;;;;12.27;100.00;99836.77;2012815;71;32818;-76
2022/04/08 14:15:03;;;;;;;11.23;10.53;;;;;;;12.33;100.00;99840.20;2010670;71;32913;-73
2022/04/08 14:20:47;;;;;;;11.17;10.50;;;;;;;12.80;100.00;99851.09;2000234;71;32755;-80
2022/04/08 14:26:31;;;;;;;11.70;11.00;;;;;;;12.32;100.00;99863.64;2008962;71;33263;-70
2022/04/08 14:32:16;;;;;;;12.37;11.77;;;;;;;11.39;100.00;99896.86;1994854;71;33324;-72
2022/04/08 14:38:00;;;;;;;12.30;11.33;;;;;;;11.07;100.00;99897.62;2003512;71;32833;-73
2022/04/08 14:43:45;;;;;;;12.27;11.50;;;;;;;11.38;100.00;99895.21;2008778;71;32823;-70
2022/04/08 14:49:29;;;;;;;12.37;11.77;;;;;;;11.52;100.00;99895.73;2014426;71;32914;-74
2022/04/08 14:55:14;;;;;;;11.90;11.20;;;;;;;12.15;100.00;99890.80;2008832;71;33436;-74
2022/04/08 15:00:58;;;;;;;11.10;10.57;;;;;;;12.28;100.00;99894.64;2007556;71;33295;-73
2022/04/08 15:06:45;;;;;;;11.53;10.90;;;;;;;11.97;100.00;99923.87;1921848;73;33010;-75
2022/04/08 15:12:29;;;;;;;11.70;11.00;;;;;;;12.00;100.00;99934.36;2005771;71;33305;-69
2022/04/08 15:18:14;;;;;;;11.80;11.20;;;;;;;11.97;100.00;99930.83;2002350;71;32762;-74
2022/04/08 15:23:58;;;;;;;12.10;11.30;;;;;;;12.02;100.00;99941.01;2005040;71;32932;-74
2022/04/08 15:29:42;;;;;;;12.00;11.40;;;;;;;12.38;100.00;99949.24;1999868;71;32936;-69
2022/04/08 15:35:29;;;;;;;11.80;11.20;;;;;;;12.16;100.00;99959.27;2014534;71;32890;-73
2022/04/08 15:41:19;;;;;;;12.03;11.40;;;;;;;12.45;100.00;99964.34;1998020;71;33380;-68
2022/04/08 15:47:04;;;;;;;11.47;10.97;;;;;;;12.70;100.00;99969.26;2014278;71;33408;-68
2022/04/08 15:52:49;;;;;;;12.10;11.50;;;;;;;12.33;100.00;99987.78;2010604;71;32928;-68
2022/04/08 15:58:34;;;;;;;12.03;11.40;;;;;;;12.28;100.00;100005.45;2016118;71;32903;-69
2022/04/08 16:04:18;;;;;;;12.00;11.50;;;;;;;12.09;100.00;100022.92;2002018;71;33038;-68
2022/04/08 16:10:02;;;;;;;12.37;11.57;;;;;;;11.76;100.00;100036.80;1994244;71;32891;-75
2022/04/08 16:15:46;;;;;;;12.40;11.80;;;;;;;11.89;100.00;100035.94;2005730;71;32841;-70
2022/04/08 16:21:31;;;;;;;11.30;10.73;;;;;;;12.18;100.00;100042.48;2013545;71;32902;-75
2022/04/08 16:27:18;;;;;;;11.70;11.00;;;;;;;12.25;100.00;100047.86;2012635;71;33415;-70
2022/04/08 16:33:03;;;;;;;12.07;11.37;;;;;;;11.33;100.00;100067.73;2014384;71;32824;-75
2022/04/08 16:38:47;;;;;;;11.97;11.37;;;;;;;11.24;100.00;100069.58;2016447;71;33346;-71
2022/04/08 16:44:31;;;;;;;12.30;11.70;;;;;;;11.74;100.00;100073.27;1991305;71;33274;-75
2022/04/08 16:50:15;;;;;;;12.10;11.50;;;;;;;12.00;100.00;100075.47;2016189;71;32919;-69
2022/04/08 16:56:00;;;;;;;12.40;11.70;;;;;;;12.29;100.00;100091.20;1988781;71;32863;-75
2022/04/08 17:01:42;;;;;;;12.30;11.80;;;;;;;12.02;100.00;100099.09;2003377;71;32887;-75
2022/04/08 17:07:26;;;;;;;11.57;10.80;;;;;;;11.62;100.00;100117.45;2009013;71;33218;-69
2022/04/08 17:13:10;;;;;;;11.33;10.80;;;;;;;11.49;100.00;100121.63;2013118;71;32941;-69
2022/04/08 17:18:55;;;;;;;11.60;11.10;;;;;;;11.37;100.00;100142.44;2017898;71;32892;-75
2022/04/08 17:24:39;;;;;;;12.40;11.80;;;;;;;11.42;100.00;100145.09;1996477;71;32815;-68
2022/04/08 17:30:24;;;;;;;11.27;10.87;;;;;;;11.28;100.00;100154.56;2003519;71;32808;-76
2022/04/08 17:36:09;;;;;;;11.90;11.27;;;;;;;10.86;100.00;100173.11;2016254;71;33395;-70
2022/04/08 17:41:53;;;;;;;12.43;11.80;;;;;;;10.55;100.00;100179.45;2006418;71;32810;-78
2022/04/08 17:47:39;;;;;;;12.30;11.73;;;;;;;10.58;100.00;100192.72;2001729;71;32968;-73
2022/04/08 17:53:25;;;;;;;11.57;11.07;;;;;;;10.56;100.00;100193.05;2011314;71;32880;-71
2022/04/08 17:59:12;;;;;;;11.93;11.17;;;;;;;10.49;100.00;100210.63;2005491;71;33284;-69
2022/04/08 18:05:05;;;;;;;11.40;10.90;;;;;;;10.39;100.00;100226.89;1932158;74;33454;-73
2022/04/08 18:10:50;;;;;;;12.47;11.80;;;;;;;10.28;100.00;100240.63;1991009;71;32848;-77
2022/04/08 18:16:35;;;;;;;12.27;11.67;;;;;;;9.94;100.00;100253.23;1991440;70;32767;-68
2022/04/08 18:22:24;;;;;;;11.80;11.20;;;;;;;9.58;100.00;100260.31;2000178;71;32911;-68
2022/04/08 18:28:13;;;;;;;11.67;11.10;;;;;;;9.27;100.00;100281.12;2009111;71;32989;-68
2022/04/08 18:33:57;;;;;;;11.70;11.20;;;;;;;9.03;100.00;100301.80;2014628;71;32923;-70
2022/04/08 18:39:42;;;;;;;12.20;11.40;;;;;;;8.64;100.00;100308.73;2011323;71;33326;-76
2022/04/08 18:45:27;;;;;;;12.30;11.70;;;;;;;8.39;100.00;100329.03;2005612;71;32829;-77
2022/04/08 18:51:12;;;;;;;12.70;11.90;;;;;;;8.07;100.00;100346.56;2016481;71;32817;-69
2022/04/08 18:56:56;;;;;;;13.20;12.50;;;;;;;7.93;100.00;100355.16;1959572;72;32850;-75
2022/04/08 19:02:40;;;;;;;13.50;12.80;;;;;;;8.02;100.00;100360.41;2001920;71;32828;-74
2022/04/08 19:08:25;;;;;;;15.57;14.43;;;;;;;7.94;100.00;100377.02;1991390;71;33319;-70
2022/04/08 19:14:10;;;;;;;14.73;13.93;;;;;;;8.07;100.00;100380.59;2004215;71;33453;-72
2022/04/08 19:19:54;;;;;;;15.33;14.43;;;;;;;7.89;100.00;100400.53;2013124;71;33357;-74
2022/04/08 19:25:38;;;;;;;16.60;15.70;;;;;;;7.95;100.00;100413.80;1994847;71;32873;-74
2022/04/08 19:31:22;;;;;;;16.00;15.20;;;;;;;7.77;100.00;100428.47;2000255;71;32834;-74
2022/04/08 19:37:07;;;;;;;18.60;17.60;;;;;;;7.78;100.00;100457.78;2002145;71;33286;-74
2022/04/08 19:42:51;;;;;;;15.77;14.97;;;;;;;8.54;100.00;100467.38;1994707;71;33361;-73
2022/04/08 19:48:36;;;;;;;15.20;14.20;;;;;;;8.36;100.00;100471.30;2016267;71;32932;-74
2022/04/08 19:54:21;;;;;;;15.13;14.23;;;;;;;8.46;100.00;100483.73;2014889;71;33431;-73
2022/04/08 20:00:07;;;;;;;15.80;15.00;;;;;;;8.39;100.00;100493.70;2012896;71;32840;-68
2022/04/08 20:05:51;;;;;;;15.60;14.80;;;;;;;8.38;100.00;100511.44;2000455;71;32833;-71
2022/04/08 20:11:35;;;;;;;15.00;14.30;;;;;;;8.29;100.00;100516.39;2003833;71;32889;-69
2022/04/08 20:17:20;;;;;;;15.20;14.50;;;;;;;8.24;100.00;100531.05;2000046;71;33031;-71
2022/04/08 20:23:04;;;;;;;16.07;15.30;;;;;;;8.00;100.00;100541.83;1996942;71;32869;-75
2022/04/08 20:28:49;;;;;;;15.33;14.63;;;;;;;8.00;100.00;100552.08;2007135;71;32850;-70
2022/04/08 20:34:35;;;;;;;16.50;15.60;;;;;;;8.09;100.00;100563.69;2018362;71;32951;-75
2022/04/08 20:40:21;;;;;;;15.40;14.43;;;;;;;8.22;100.00;100573.37;2003530;71;32853;-70
2022/04/08 20:46:06;;;;;;;14.33;13.57;;;;;;;9.09;100.00;100580.48;2003727;71;33258;-70
2022/04/08 20:51:51;;;;;;;14.00;13.30;;;;;;;9.24;100.00;100590.11;1995626;70;33255;-75
2022/04/08 20:57:35;;;;;;;14.70;13.80;;;;;;;8.90;100.00;100606.55;1995019;71;32773;-73
2022/04/08 21:03:21;;;;;;;14.83;14.03;;;;;;;8.68;100.00;100626.25;1999925;71;32960;-74
2022/04/08 21:09:06;;;;;;;13.63;12.80;;;;;;;8.80;100.00;100638.44;2009268;70;32880;-73
2022/04/08 21:14:51;;;;;;;12.47;11.97;;;;;;;9.06;100.00;100653.92;2012852;71;32875;-73
2022/04/08 21:20:35;;;;;;;12.57;11.93;;;;;;;8.96;100.00;100665.00;2014681;71;33282;-73
2022/04/08 21:26:19;;;;;;;12.53;11.93;;;;;;;8.88;100.00;100682.74;2007805;71;32751;-70
2022/04/08 21:32:04;;;;;;;13.17;12.47;;;;;;;8.86;100.00;100696.86;2006347;71;33374;-75
2022/04/08 21:37:52;;;;;;;12.90;12.20;;;;;;;8.85;100.00;100709.06;1964578;72;33002;-79
2022/04/08 21:43:36;;;;;;;13.03;12.33;;;;;;;8.75;100.00;100731.21;2014895;71;32992;-78
2022/04/08 21:49:21;;;;;;;13.03;12.33;;;;;;;8.68;100.00;100741.16;2005618;71;33297;-70
2022/04/08 22:01:12;;;;;;;12.47;11.77;;;;;;;8.53;100.00;100781.29;2018957;71;33428;-79
2022/04/08 22:06:56;;;;;;;12.90;12.20;;;;;;;8.48;100.00;100797.05;2002651;71;32829;-73
2022/04/08 22:12:40;;;;;;;12.60;11.97;;;;;;;8.44;100.00;100821.67;1991588;71;33266;-70
2022/04/08 22:18:26;;;;;;;13.07;12.47;;;;;;;8.39;100.00;100843.80;1995266;71;32858;-73
2022/04/08 22:24:11;;;;;;;29.30;27.50;;;;;;;8.16;100.00;100876.05;2006190;71;32766;-71
2022/04/08 22:29:55;;;;;;;42.93;40.53;;;;;;;7.59;100.00;100880.09;2003605;70;33369;-70
2022/04/08 22:35:40;;;;;;;42.27;39.87;;;;;;;7.65;100.00;100881.81;2005986;71;32810;-78
2022/04/08 22:41:25;;;;;;;44.97;42.37;;;;;;;7.75;100.00;100897.91;2012127;71;33296;-78
2022/04/08 22:47:10;;;;;;;53.77;50.70;;;;;;;7.64;100.00;100895.34;1985465;71;33336;-74
2022/04/08 22:52:55;;;;;;;59.13;55.80;;;;;;;7.62;100.00;100903.05;2001000;71;32786;-76
2022/04/08 22:58:54;;;;;;;60.40;56.67;;;;;;;7.43;100.00;100919.77;2014767;71;32910;-70
2022/04/08 23:04:39;;;;;;;60.17;56.47;;;;;;;7.30;100.00;100945.90;2016506;71;32883;-78
2022/04/08 23:10:24;;;;;;;60.67;56.87;;;;;;;7.15;100.00;100936.89;2011920;71;32836;-73
2022/04/08 23:16:09;;;;;;;61.07;57.27;;;;;;;7.18;100.00;100951.59;2015359;71;33320;-76
2022/04/08 23:21:54;;;;;;;63.20;59.10;;;;;;;7.14;100.00;100950.45;2005871;71;32957;-70
2022/04/08 23:27:38;;;;;;;65.23;61.00;;;;;;;6.99;100.00;100969.59;2007560;71;32860;-78
2022/04/08 23:33:24;;;;;;;63.23;59.03;;;;;;;6.93;100.00;100965.66;2012958;71;32862;-72
2022/04/08 23:39:08;;;;;;;61.87;57.77;;;;;;;6.76;100.00;100974.83;2018238;71;32805;-69
2022/04/08 23:44:53;;;;;;;61.83;57.63;;;;;;;6.74;100.00;100983.93;2005459;71;32808;-78
2022/04/08 23:50:37;;;;;;;61.93;57.63;;;;;;;6.69;100.00;100980.27;2005516;71;33341;-70
2022/04/08 23:56:22;;;;;;;62.53;58.27;;;;;;;6.75;100.00;100988.91;2016538;71;32870;-70
